Terminal Aerodrome Forecast
Issued by NWS

Current Version | Previous Version | Text Only | Print | Product List | Glossary On
Versions: 1 2 3 4 5 6 7 8 9 10 11 12 13 14
243
FTUS44 KCRP 221134
TAFLRD
TAF
KLRD 221134Z 2212/2312 29004KT P6SM SKC
     FM230000 15006KT P6SM SKC=

USA.gov is the U.S. government's official web portal to all federal, state and local government web resources and services.